createdAt,value
2016-12-02T00:01:37.391Z,0
2016-12-02T00:02:19.098Z,0
2016-12-02T00:03:00.843Z,0
2016-12-02T00:03:42.427Z,0
2016-12-02T00:04:24.129Z,0
2016-12-02T00:05:05.977Z,0
2016-12-02T00:05:47.664Z,0
2016-12-02T00:08:08.009Z,0
2016-12-02T00:08:49.675Z,0
2016-12-02T00:11:10.321Z,0
2016-12-02T00:11:52.071Z,0
2016-12-02T00:14:28.448Z,0
2016-12-02T00:17:10.157Z,0
2016-12-02T00:17:51.843Z,0
2016-12-02T00:20:22.928Z,0
2016-12-02T00:21:04.675Z,0
2016-12-02T00:23:46.276Z,0
2016-12-02T00:24:27.918Z,0
2016-12-02T00:25:09.669Z,0
2016-12-02T00:25:51.397Z,0
2016-12-02T00:26:33.188Z,0
2016-12-02T00:27:14.566Z,0
2016-12-02T00:27:56.303Z,0
2016-12-02T00:28:38.061Z,0
2016-12-02T00:29:19.742Z,0
2016-12-02T00:30:01.488Z,0
2016-12-02T00:30:43.225Z,0
2016-12-02T00:33:14.390Z,0
2016-12-02T00:33:56.151Z,0
2016-12-02T00:34:37.848Z,0
2016-12-02T00:35:19.520Z,0
2016-12-02T00:36:01.243Z,0
2016-12-02T00:38:37.683Z,0
2016-12-02T00:39:19.485Z,0
2016-12-02T00:40:01.209Z,0
2016-12-02T00:40:42.752Z,0
2016-12-02T00:43:03.511Z,0
2016-12-02T00:43:45.220Z,0
2016-12-02T00:46:00.522Z,0
2016-12-02T00:46:42.223Z,0
2016-12-02T00:47:24.027Z,0
2016-12-02T00:48:05.734Z,0
2016-12-02T00:48:47.382Z,0
2016-12-02T00:49:29.169Z,0
2016-12-02T00:50:10.787Z,0
2016-12-02T00:50:52.501Z,0
2016-12-02T00:55:12.822Z,0
2016-12-02T00:55:54.587Z,0
2016-12-02T00:56:36.371Z,0
2016-12-02T00:57:18.102Z,0
2016-12-02T00:57:59.903Z,0
2016-12-02T01:00:36.475Z,0
2016-12-02T01:03:12.767Z,0
2016-12-02T01:03:54.411Z,0
2016-12-02T01:06:09.929Z,0
2016-12-02T01:06:51.740Z,0
2016-12-02T01:07:33.458Z,0
2016-12-02T01:08:15.315Z,0
2016-12-02T01:08:56.971Z,0
2016-12-02T01:11:12.242Z,0
2016-12-02T01:11:53.995Z,0
2016-12-02T01:12:35.775Z,0
2016-12-02T01:13:17.518Z,0
2016-12-02T01:13:59.303Z,0
2016-12-02T01:16:30.394Z,0
2016-12-02T01:17:12.119Z,0
2016-12-02T01:17:53.774Z,0
2016-12-02T01:18:35.545Z,0
2016-12-02T01:19:17.254Z,0
2016-12-02T01:19:59.002Z,0
2016-12-02T01:20:40.768Z,0
2016-12-02T01:23:01.539Z,0
2016-12-02T01:23:43.176Z,0
2016-12-02T01:26:14.348Z,0
2016-12-02T01:26:56.103Z,0
2016-12-02T01:27:37.833Z,0
2016-12-02T01:31:47.827Z,0
2016-12-02T01:32:29.514Z,0
2016-12-02T01:33:11.261Z,0
2016-12-02T01:33:52.932Z,0
2016-12-02T01:34:34.732Z,0
2016-12-02T01:35:16.480Z,0
2016-12-02T01:35:58.201Z,0
2016-12-02T01:36:39.817Z,0
2016-12-02T01:37:21.485Z,0
2016-12-02T01:38:02.977Z,0
2016-12-02T01:38:44.442Z,0
2016-12-02T01:39:26.110Z,0
2016-12-02T01:40:07.642Z,0
2016-12-02T01:42:49.309Z,0
2016-12-02T01:43:31.016Z,0
2016-12-02T01:45:46.267Z,0
2016-12-02T01:48:01.731Z,0
2016-12-02T01:50:32.524Z,0
2016-12-02T01:54:42.527Z,0
2016-12-02T01:55:24.180Z,0
2016-12-02T01:57:44.784Z,0
2016-12-02T01:58:26.507Z,0
2016-12-02T02:00:40.765Z,0
2016-12-02T02:01:21.303Z,0
2016-12-02T02:02:01.841Z,0
2016-12-02T02:02:42.377Z,0
2016-12-02T02:03:22.911Z,0
2016-12-02T02:04:03.451Z,0
2016-12-02T02:04:43.994Z,0
2016-12-02T02:05:24.514Z,0
2016-12-02T02:06:05.045Z,0
2016-12-02T02:06:45.579Z,0
2016-12-02T02:07:26.123Z,0
2016-12-02T02:08:06.656Z,0
2016-12-02T02:08:47.191Z,0
2016-12-02T02:09:27.717Z,0
2016-12-02T02:10:08.248Z,0
2016-12-02T02:10:48.785Z,0
2016-12-02T02:11:29.316Z,0
2016-12-02T02:12:09.861Z,0
2016-12-02T02:12:50.390Z,0
2016-12-02T02:13:30.912Z,0
2016-12-02T02:14:11.450Z,0
2016-12-02T02:14:51.985Z,0
2016-12-02T02:15:32.519Z,0
2016-12-02T02:16:13.063Z,0
2016-12-02T02:16:53.600Z,0
2016-12-02T02:17:34.143Z,0
2016-12-02T02:18:14.674Z,0
2016-12-02T02:18:55.208Z,0
2016-12-02T02:19:35.748Z,0
2016-12-02T02:20:16.285Z,0
2016-12-02T02:20:56.819Z,0
2016-12-02T02:21:37.348Z,0
2016-12-02T02:22:17.934Z,0
2016-12-02T02:22:58.470Z,0
2016-12-02T02:23:39.008Z,0
2016-12-02T02:24:19.561Z,0
2016-12-02T02:25:00.088Z,0
2016-12-02T02:25:40.622Z,0
2016-12-02T02:26:21.163Z,0
2016-12-02T02:27:01.699Z,0
2016-12-02T02:27:42.249Z,0
2016-12-02T02:28:22.780Z,0
2016-12-02T02:29:03.324Z,0
2016-12-02T02:29:43.860Z,0
2016-12-02T02:30:24.399Z,0
2016-12-02T02:31:04.922Z,0
2016-12-02T02:31:45.457Z,0
2016-12-02T02:32:25.992Z,0
2016-12-02T02:33:06.531Z,0
2016-12-02T02:33:47.070Z,0
2016-12-02T02:34:27.611Z,0
2016-12-02T02:35:08.144Z,0
2016-12-02T02:35:48.674Z,0
2016-12-02T02:36:29.215Z,0
2016-12-02T02:37:09.740Z,0
2016-12-02T02:37:50.296Z,0
2016-12-02T02:38:30.832Z,0
2016-12-02T02:39:11.365Z,0
2016-12-02T02:39:51.891Z,0
2016-12-02T02:40:32.428Z,0
2016-12-02T02:41:12.969Z,0
2016-12-02T02:41:53.526Z,0
2016-12-02T02:42:34.114Z,0
2016-12-02T02:43:14.639Z,0
2016-12-02T02:43:55.174Z,0
2016-12-02T02:44:35.708Z,0
2016-12-02T02:45:16.264Z,0
2016-12-02T02:45:56.792Z,0
2016-12-02T02:46:37.319Z,0
2016-12-02T02:47:17.841Z,0
2016-12-02T02:47:58.376Z,0
2016-12-02T02:48:38.911Z,0
2016-12-02T02:49:19.441Z,0
2016-12-02T02:49:59.974Z,0
2016-12-02T02:50:40.521Z,0
2016-12-02T02:51:21.049Z,0
2016-12-02T02:52:01.586Z,0
2016-12-02T02:52:42.122Z,0
2016-12-02T02:53:22.658Z,0
2016-12-02T02:54:03.194Z,0
2016-12-02T02:54:43.732Z,0
2016-12-02T02:55:24.262Z,0
2016-12-02T02:56:04.795Z,0
2016-12-02T02:56:45.328Z,0
2016-12-02T02:57:25.865Z,0
2016-12-02T02:58:06.404Z,0
2016-12-02T02:58:46.945Z,0
2016-12-02T02:59:27.487Z,0
2016-12-02T03:00:08.030Z,0
2016-12-02T03:00:48.558Z,0
2016-12-02T03:01:29.084Z,0
2016-12-02T03:02:09.608Z,0
2016-12-02T03:02:50.161Z,0
2016-12-02T03:03:30.699Z,0
2016-12-02T03:04:11.240Z,0
2016-12-02T03:04:51.780Z,0
2016-12-02T03:05:32.310Z,0
2016-12-02T03:06:12.848Z,0
2016-12-02T03:06:53.395Z,0
2016-12-02T03:07:33.926Z,0
2016-12-02T03:08:14.469Z,0
2016-12-02T03:08:55.004Z,0
2016-12-02T03:09:35.539Z,0
2016-12-02T03:10:16.056Z,0
2016-12-02T03:10:56.591Z,0
2016-12-02T03:11:37.133Z,0
2016-12-02T03:12:17.698Z,0
2016-12-02T03:12:58.238Z,0
2016-12-02T03:13:38.772Z,0
2016-12-02T03:14:19.310Z,0
2016-12-02T03:14:59.849Z,0
2016-12-02T03:15:40.390Z,0
2016-12-02T03:16:20.930Z,0
2016-12-02T03:17:01.456Z,0
2016-12-02T03:17:41.996Z,0
2016-12-02T03:18:22.530Z,0
2016-12-02T03:19:03.081Z,0
2016-12-02T03:19:43.617Z,0
2016-12-02T03:20:24.154Z,0
2016-12-02T03:21:04.691Z,0
2016-12-02T03:21:45.217Z,0
2016-12-02T03:22:25.754Z,0
2016-12-02T03:23:06.292Z,0
2016-12-02T03:23:46.821Z,0
2016-12-02T03:24:27.353Z,0
2016-12-02T03:25:07.897Z,0
2016-12-02T03:25:48.416Z,0
2016-12-02T03:26:28.953Z,0
2016-12-02T03:27:09.489Z,0
2016-12-02T03:27:50.025Z,0
2016-12-02T03:28:30.561Z,0
2016-12-02T03:29:11.099Z,0
2016-12-02T03:29:51.657Z,0
2016-12-02T03:30:32.181Z,0
2016-12-02T03:31:12.718Z,0
2016-12-02T03:31:53.260Z,0
2016-12-02T03:32:33.797Z,0
2016-12-02T03:33:14.338Z,0
2016-12-02T03:33:54.874Z,0
2016-12-02T03:34:35.415Z,0
2016-12-02T03:35:15.965Z,0
2016-12-02T03:35:56.515Z,0
2016-12-02T03:36:37.025Z,0
2016-12-02T03:37:17.565Z,0
2016-12-02T03:37:58.102Z,0
2016-12-02T03:38:38.663Z,0
2016-12-02T03:39:19.203Z,0
2016-12-02T03:39:59.734Z,0
2016-12-02T03:40:40.270Z,0
2016-12-02T03:41:20.818Z,0
2016-12-02T03:42:01.340Z,0
2016-12-02T03:42:41.872Z,0
2016-12-02T03:43:22.411Z,0
2016-12-02T03:44:02.942Z,0
2016-12-02T03:44:43.491Z,0
2016-12-02T03:45:24.032Z,0
2016-12-02T03:46:04.572Z,0
2016-12-02T03:46:45.114Z,0
2016-12-02T03:47:25.636Z,0
2016-12-02T03:48:06.170Z,0
2016-12-02T03:48:46.709Z,0
2016-12-02T03:49:27.247Z,0
2016-12-02T03:50:07.785Z,0
2016-12-02T03:50:48.317Z,0
2016-12-02T03:51:28.848Z,0
2016-12-02T03:52:09.380Z,0
2016-12-02T03:52:49.924Z,0
2016-12-02T03:53:30.450Z,0
2016-12-02T03:54:10.996Z,0
2016-12-02T03:54:51.528Z,0
2016-12-02T03:55:32.047Z,0
2016-12-02T03:56:12.582Z,0
2016-12-02T03:56:53.121Z,0
2016-12-02T03:57:33.648Z,0
2016-12-02T03:58:14.191Z,0
2016-12-02T03:58:54.733Z,0
2016-12-02T03:59:35.303Z,0
2016-12-02T04:00:15.789Z,0
2016-12-02T04:00:56.326Z,0
2016-12-02T04:01:36.865Z,0
2016-12-02T04:02:17.416Z,0
2016-12-02T04:02:57.949Z,0
2016-12-02T04:03:38.478Z,0
2016-12-02T04:04:19.002Z,0
2016-12-02T04:04:59.534Z,0
2016-12-02T04:05:40.053Z,0
2016-12-02T04:06:20.610Z,0
2016-12-02T04:07:01.148Z,0
2016-12-02T04:07:41.681Z,0
2016-12-02T04:08:22.220Z,0
2016-12-02T04:09:02.744Z,0
2016-12-02T04:09:43.286Z,0
2016-12-02T04:10:23.826Z,0
2016-12-02T04:11:04.362Z,0
2016-12-02T04:11:44.885Z,0
2016-12-02T04:12:25.420Z,0
2016-12-02T04:13:05.941Z,0
2016-12-02T04:13:46.477Z,0
2016-12-02T04:14:27.015Z,0
2016-12-02T04:15:07.552Z,0
2016-12-02T04:15:48.094Z,0
2016-12-02T04:16:28.613Z,0
2016-12-02T04:17:09.144Z,0
2016-12-02T04:17:49.680Z,0
2016-12-02T04:18:30.216Z,0
2016-12-02T04:19:10.756Z,0
2016-12-02T04:19:51.297Z,0
2016-12-02T04:20:31.838Z,0
2016-12-02T04:21:12.374Z,0
2016-12-02T04:21:52.910Z,0
2016-12-02T04:22:33.446Z,0
2016-12-02T04:23:13.981Z,0
2016-12-02T04:23:54.515Z,0
2016-12-02T04:24:35.060Z,0
2016-12-02T04:25:15.601Z,0
2016-12-02T04:25:56.140Z,0
2016-12-02T04:26:36.679Z,0
2016-12-02T04:27:17.211Z,0
2016-12-02T04:27:57.748Z,0
2016-12-02T04:28:38.268Z,0
2016-12-02T04:29:18.812Z,0
2016-12-02T04:29:59.353Z,0
2016-12-02T04:30:39.895Z,0
2016-12-02T04:31:20.416Z,0
2016-12-02T04:32:00.947Z,0
2016-12-02T04:32:41.484Z,0
2016-12-02T04:33:22.035Z,0
2016-12-02T04:34:02.571Z,0
2016-12-02T04:34:43.118Z,0
2016-12-02T04:35:23.650Z,0
2016-12-02T04:36:04.176Z,0
2016-12-02T04:36:44.716Z,0
2016-12-02T04:37:25.243Z,0
2016-12-02T04:38:05.782Z,0
2016-12-02T04:38:46.316Z,0
2016-12-02T04:39:26.852Z,0
2016-12-02T04:40:07.381Z,0
2016-12-02T04:40:47.920Z,0
2016-12-02T04:41:28.448Z,0
2016-12-02T04:42:08.987Z,0
2016-12-02T04:42:49.537Z,0
2016-12-02T04:43:30.121Z,0
2016-12-02T04:44:10.673Z,0
2016-12-02T04:44:51.211Z,0
2016-12-02T04:45:31.737Z,0
2016-12-02T04:46:12.387Z,0
2016-12-02T04:46:52.929Z,0
2016-12-02T04:47:33.464Z,0
2016-12-02T04:48:14.027Z,0
2016-12-02T04:48:54.561Z,0
2016-12-02T04:49:35.090Z,0
2016-12-02T04:50:15.624Z,0
2016-12-02T04:50:56.154Z,0
2016-12-02T04:51:36.714Z,0
2016-12-02T04:52:17.249Z,0
2016-12-02T04:52:57.771Z,0
2016-12-02T04:53:38.329Z,0
2016-12-02T04:54:18.875Z,0
2016-12-02T04:54:59.436Z,0
2016-12-02T04:55:39.982Z,0
2016-12-02T04:56:20.576Z,0
2016-12-02T04:57:01.112Z,0
2016-12-02T04:57:41.647Z,0
2016-12-02T04:58:22.191Z,0
2016-12-02T04:59:02.726Z,0
2016-12-02T04:59:43.253Z,0
2016-12-02T05:00:23.788Z,0
2016-12-02T05:01:04.335Z,0
2016-12-02T05:01:44.869Z,0
2016-12-02T05:02:25.403Z,0
2016-12-02T05:03:05.982Z,0
2016-12-02T05:03:46.504Z,0
2016-12-02T05:04:27.052Z,0
2016-12-02T05:05:07.584Z,0
2016-12-02T05:05:48.126Z,0
2016-12-02T05:06:28.637Z,0
2016-12-02T05:07:09.172Z,0
2016-12-02T05:07:49.716Z,0
2016-12-02T05:08:30.252Z,0
2016-12-02T05:09:10.814Z,0
2016-12-02T05:09:51.353Z,0
2016-12-02T05:10:31.885Z,0
2016-12-02T05:11:12.435Z,0
2016-12-02T05:11:52.959Z,0
2016-12-02T05:12:33.496Z,0
2016-12-02T05:13:14.032Z,0
2016-12-02T05:13:54.567Z,0
2016-12-02T05:14:35.105Z,0
2016-12-02T05:15:15.653Z,0
2016-12-02T05:15:56.188Z,0
2016-12-02T05:16:36.726Z,0
2016-12-02T05:17:17.259Z,0
2016-12-02T05:17:57.801Z,0
2016-12-02T05:18:38.337Z,0
2016-12-02T05:19:18.876Z,0
2016-12-02T05:19:59.412Z,0
2016-12-02T05:20:39.944Z,0
2016-12-02T05:21:20.489Z,0
2016-12-02T05:22:01.030Z,0
2016-12-02T05:22:41.560Z,0
2016-12-02T05:23:22.092Z,0
2016-12-02T05:24:02.629Z,0
2016-12-02T05:24:43.163Z,0
2016-12-02T05:25:23.694Z,0
2016-12-02T05:26:04.267Z,0
2016-12-02T05:26:44.807Z,0
2016-12-02T05:27:25.334Z,0
2016-12-02T05:28:05.873Z,0
2016-12-02T05:28:46.412Z,0
2016-12-02T05:29:26.944Z,0
2016-12-02T05:30:07.484Z,0
2016-12-02T05:30:48.021Z,0
2016-12-02T05:31:28.569Z,0
2016-12-02T05:32:09.115Z,0
2016-12-02T05:32:49.650Z,0
2016-12-02T05:33:30.192Z,0
2016-12-02T05:34:10.723Z,0
2016-12-02T05:34:51.263Z,0
2016-12-02T05:35:31.803Z,0
2016-12-02T05:36:12.347Z,0
2016-12-02T05:36:52.878Z,0
2016-12-02T05:37:33.415Z,0
2016-12-02T05:38:13.953Z,0
2016-12-02T05:38:54.483Z,0
2016-12-02T05:39:35.017Z,0
2016-12-02T05:40:15.550Z,0
2016-12-02T05:40:56.082Z,0
2016-12-02T05:41:36.632Z,0
2016-12-02T05:42:17.177Z,0
2016-12-02T05:42:57.717Z,0
2016-12-02T05:43:38.259Z,0
2016-12-02T05:44:18.810Z,0
2016-12-02T05:44:59.382Z,0
2016-12-02T05:45:39.912Z,0
2016-12-02T05:46:20.467Z,0
2016-12-02T05:47:00.992Z,0
2016-12-02T05:47:41.518Z,0
2016-12-02T05:48:22.058Z,0
2016-12-02T05:49:02.620Z,0
2016-12-02T05:49:43.161Z,0
2016-12-02T05:50:23.717Z,0
2016-12-02T05:51:04.244Z,0
2016-12-02T05:51:44.857Z,0
2016-12-02T05:52:25.365Z,0
2016-12-02T05:53:05.903Z,0
2016-12-02T05:53:46.652Z,0
2016-12-02T05:54:27.335Z,0
2016-12-02T05:55:07.952Z,0
2016-12-02T05:55:48.498Z,0
2016-12-02T05:56:29.033Z,0
2016-12-02T05:57:09.571Z,0
2016-12-02T05:57:50.103Z,0
2016-12-02T05:58:30.640Z,0
2016-12-02T05:59:11.183Z,0
2016-12-02T05:59:51.724Z,0
2016-12-02T06:00:32.266Z,0
2016-12-02T06:01:12.836Z,0
2016-12-02T06:01:53.372Z,0
2016-12-02T06:02:33.911Z,0
2016-12-02T06:03:14.504Z,0
2016-12-02T06:03:55.033Z,0
2016-12-02T06:04:35.573Z,0
2016-12-02T06:05:16.105Z,0
2016-12-02T06:05:56.640Z,0
2016-12-02T06:06:37.170Z,0
2016-12-02T06:07:17.702Z,0
2016-12-02T06:07:58.238Z,0
2016-12-02T06:08:38.768Z,0
2016-12-02T06:09:19.292Z,0
2016-12-02T06:09:59.840Z,0
2016-12-02T06:10:40.372Z,0
2016-12-02T06:11:20.912Z,0
2016-12-02T06:12:01.443Z,0
2016-12-02T06:12:41.983Z,0
2016-12-02T06:13:22.517Z,0
2016-12-02T06:14:03.053Z,0
2016-12-02T06:14:43.594Z,0
2016-12-02T06:15:24.125Z,0
2016-12-02T06:16:04.651Z,0
2016-12-02T06:16:45.177Z,0
2016-12-02T06:17:25.728Z,0
2016-12-02T06:18:06.270Z,0
2016-12-02T06:18:46.811Z,0
2016-12-02T06:19:27.383Z,0
2016-12-02T06:20:07.918Z,0
2016-12-02T06:20:48.464Z,0
2016-12-02T06:21:28.981Z,0
2016-12-02T06:22:09.504Z,0
2016-12-02T06:22:50.052Z,0
2016-12-02T06:23:30.589Z,0
2016-12-02T06:24:11.127Z,0
2016-12-02T06:24:51.667Z,0
2016-12-02T06:25:32.212Z,0
2016-12-02T06:26:12.755Z,0
2016-12-02T06:26:53.290Z,0
2016-12-02T06:27:33.826Z,0
2016-12-02T06:28:14.364Z,0
2016-12-02T06:28:54.903Z,0
2016-12-02T06:29:35.450Z,0
2016-12-02T06:30:15.981Z,0
2016-12-02T06:30:56.519Z,0
2016-12-02T06:31:37.070Z,0
2016-12-02T06:32:17.611Z,0
2016-12-02T06:32:58.153Z,0
2016-12-02T06:33:38.683Z,0
2016-12-02T06:34:19.222Z,0
2016-12-02T06:34:59.770Z,0
2016-12-02T06:35:40.308Z,0
2016-12-02T06:36:20.855Z,0
2016-12-02T06:37:01.399Z,0
2016-12-02T06:37:41.937Z,0
2016-12-02T06:38:22.474Z,0
2016-12-02T06:39:03.016Z,0
2016-12-02T06:39:43.539Z,0
2016-12-02T06:40:24.074Z,0
2016-12-02T06:41:04.614Z,0
2016-12-02T06:41:45.154Z,0
2016-12-02T06:42:25.683Z,0
2016-12-02T06:43:06.219Z,0
2016-12-02T06:43:48.696Z,0
2016-12-02T06:44:29.233Z,0
2016-12-02T06:45:09.775Z,0
2016-12-02T06:45:50.308Z,0
2016-12-02T06:46:30.843Z,0
2016-12-02T06:47:11.405Z,0
2016-12-02T06:47:51.939Z,0
2016-12-02T06:48:32.488Z,0
2016-12-02T06:49:13.032Z,0
2016-12-02T06:49:53.565Z,0
2016-12-02T06:50:34.105Z,0
2016-12-02T06:51:14.642Z,0
2016-12-02T06:51:55.182Z,0
2016-12-02T06:52:35.721Z,0
2016-12-02T06:53:16.284Z,0
2016-12-02T06:53:56.819Z,0
2016-12-02T06:54:37.353Z,0
2016-12-02T06:55:17.912Z,0
2016-12-02T06:55:58.451Z,0
2016-12-02T06:56:38.985Z,0
2016-12-02T06:57:19.532Z,0
2016-12-02T06:58:00.067Z,0
2016-12-02T06:58:40.595Z,0
2016-12-02T06:59:21.164Z,0
2016-12-02T07:00:01.697Z,0
2016-12-02T07:00:42.243Z,0
2016-12-02T07:01:22.835Z,0
2016-12-02T07:02:03.396Z,0
2016-12-02T07:02:43.936Z,0
2016-12-02T07:03:24.468Z,0
2016-12-02T07:04:05.005Z,0
2016-12-02T07:04:45.543Z,0
2016-12-02T07:05:26.066Z,0
2016-12-02T07:06:06.602Z,0
2016-12-02T07:06:47.138Z,0
2016-12-02T07:07:27.872Z,0
2016-12-02T07:08:08.409Z,0
2016-12-02T07:08:48.952Z,0
2016-12-02T07:09:29.492Z,0
2016-12-02T07:10:10.030Z,0
2016-12-02T07:10:50.568Z,0
2016-12-02T07:11:31.111Z,0
2016-12-02T07:12:11.647Z,0
2016-12-02T07:12:52.198Z,0
2016-12-02T07:13:32.717Z,0
2016-12-02T07:14:13.275Z,0
2016-12-02T07:14:53.773Z,0
2016-12-02T07:15:34.314Z,0
2016-12-02T07:16:14.911Z,0
2016-12-02T07:16:55.449Z,0
2016-12-02T07:17:35.994Z,0
2016-12-02T07:18:16.526Z,0
2016-12-02T07:18:57.069Z,0
2016-12-02T07:19:37.606Z,0
2016-12-02T07:20:18.147Z,0
2016-12-02T07:20:58.686Z,0
2016-12-02T07:21:39.221Z,0
2016-12-02T07:22:19.765Z,0
2016-12-02T07:23:00.307Z,0
2016-12-02T07:23:40.836Z,0
2016-12-02T07:24:21.380Z,0
2016-12-02T07:25:01.929Z,0
2016-12-02T07:25:42.469Z,0
2016-12-02T07:26:22.989Z,0
2016-12-02T07:27:03.526Z,0
2016-12-02T07:27:44.055Z,0
2016-12-02T07:28:24.588Z,0
2016-12-02T07:29:05.136Z,0
2016-12-02T07:29:45.665Z,0
2016-12-02T07:30:26.195Z,0
2016-12-02T07:31:06.732Z,0
2016-12-02T07:31:47.273Z,5
2016-12-02T07:32:27.798Z,5
2016-12-02T07:33:08.345Z,5
2016-12-02T07:33:48.890Z,5
2016-12-02T07:34:29.429Z,5
2016-12-02T07:35:09.967Z,5
2016-12-02T07:35:50.506Z,5
2016-12-02T07:36:31.028Z,5
2016-12-02T07:37:11.567Z,5
2016-12-02T07:37:52.105Z,5
2016-12-02T07:38:32.641Z,5
2016-12-02T07:39:13.196Z,5
2016-12-02T07:39:53.723Z,5
2016-12-02T07:40:34.283Z,5
2016-12-02T07:41:14.825Z,5
2016-12-02T07:41:55.345Z,5
2016-12-02T07:42:35.881Z,5
2016-12-02T07:43:16.420Z,5
2016-12-02T07:43:56.963Z,5
2016-12-02T07:44:37.498Z,5
2016-12-02T07:45:18.040Z,5
2016-12-02T07:45:58.584Z,5
2016-12-02T07:46:39.127Z,5
2016-12-02T07:47:19.663Z,5
2016-12-02T07:48:00.199Z,5
2016-12-02T07:48:40.735Z,5
2016-12-02T07:49:21.271Z,10
2016-12-02T07:50:01.816Z,5
2016-12-02T07:50:42.351Z,5
2016-12-02T07:51:22.886Z,5
2016-12-02T07:52:03.440Z,5
2016-12-02T07:52:43.982Z,5
2016-12-02T07:53:24.516Z,5
2016-12-02T07:54:05.054Z,5
2016-12-02T07:54:45.594Z,5
2016-12-02T07:55:26.130Z,5
2016-12-02T07:56:06.674Z,10
2016-12-02T07:56:47.208Z,10
2016-12-02T07:57:27.750Z,10
2016-12-02T07:58:08.292Z,10
2016-12-02T07:58:48.849Z,10
2016-12-02T07:59:29.448Z,10
2016-12-02T08:00:09.985Z,10
2016-12-02T08:00:50.517Z,10
2016-12-02T08:01:31.068Z,5
2016-12-02T08:02:11.607Z,10
2016-12-02T08:02:52.150Z,10
2016-12-02T08:03:32.694Z,10
2016-12-02T08:04:13.228Z,10
2016-12-02T08:04:53.766Z,10
2016-12-02T08:05:34.302Z,10
2016-12-02T08:06:14.840Z,10
2016-12-02T08:06:55.380Z,10
2016-12-02T08:07:35.917Z,10
2016-12-02T08:08:16.459Z,10
2016-12-02T08:08:56.996Z,10
2016-12-02T08:09:37.555Z,10
2016-12-02T08:10:18.099Z,10
2016-12-02T08:10:58.654Z,10
2016-12-02T08:11:39.184Z,15
2016-12-02T08:12:19.723Z,10
2016-12-02T08:13:00.259Z,10
2016-12-02T08:13:40.789Z,10
2016-12-02T08:14:21.324Z,20
2016-12-02T08:15:01.856Z,15
2016-12-02T08:15:42.403Z,15
2016-12-02T08:16:22.965Z,15
2016-12-02T08:17:03.504Z,15
2016-12-02T08:17:44.020Z,15
2016-12-02T08:18:24.566Z,15
2016-12-02T08:19:05.103Z,15
2016-12-02T08:19:45.640Z,20
2016-12-02T08:20:26.179Z,20
2016-12-02T08:21:06.722Z,20
2016-12-02T08:21:47.280Z,20
2016-12-02T08:22:27.823Z,20
2016-12-02T08:23:08.369Z,20
2016-12-02T08:23:48.913Z,20
2016-12-02T08:24:29.450Z,20
2016-12-02T08:25:09.983Z,20
2016-12-02T08:25:50.534Z,25
2016-12-02T08:26:31.062Z,20
2016-12-02T08:27:11.600Z,25
2016-12-02T08:27:52.135Z,25
2016-12-02T08:28:32.675Z,20
2016-12-02T08:29:13.215Z,20
2016-12-02T08:29:53.754Z,20
2016-12-02T08:30:34.288Z,20
2016-12-02T08:31:14.828Z,20
2016-12-02T08:31:55.367Z,20
2016-12-02T08:32:35.896Z,25
2016-12-02T08:33:16.439Z,20
2016-12-02T08:33:56.968Z,20
2016-12-02T08:34:37.503Z,20
2016-12-02T08:35:18.037Z,20
2016-12-02T08:35:58.593Z,20
2016-12-02T08:36:39.136Z,20
2016-12-02T08:37:19.670Z,25
2016-12-02T08:38:00.209Z,20
2016-12-02T08:38:40.743Z,20
2016-12-02T08:39:21.285Z,20
2016-12-02T08:40:01.829Z,20
2016-12-02T08:40:42.353Z,15
2016-12-02T08:41:22.891Z,20
2016-12-02T08:42:03.424Z,15
2016-12-02T08:42:43.964Z,15
2016-12-02T08:43:24.512Z,20
2016-12-02T08:44:05.050Z,20
2016-12-02T08:44:45.590Z,15
2016-12-02T08:45:26.126Z,15
2016-12-02T08:46:06.665Z,20
2016-12-02T08:46:47.201Z,25
2016-12-02T08:47:27.746Z,25
2016-12-02T08:48:08.285Z,20
2016-12-02T08:48:48.815Z,20
2016-12-02T08:49:29.352Z,20
2016-12-02T08:50:09.892Z,25
2016-12-02T08:50:50.431Z,25
2016-12-02T08:51:30.965Z,20
2016-12-02T08:52:11.497Z,20
2016-12-02T08:52:52.030Z,15
2016-12-02T08:53:32.573Z,20
2016-12-02T08:54:13.103Z,20
2016-12-02T08:54:53.637Z,20
2016-12-02T08:55:34.162Z,15
2016-12-02T08:56:14.703Z,15
2016-12-02T08:56:55.242Z,15
2016-12-02T08:57:35.780Z,20
2016-12-02T08:58:16.326Z,15
2016-12-02T08:58:56.872Z,20
2016-12-02T08:59:37.410Z,20
2016-12-02T09:00:17.950Z,20
2016-12-02T09:00:58.490Z,20
2016-12-02T09:01:39.023Z,20
2016-12-02T09:02:19.560Z,20
2016-12-02T09:03:00.098Z,20
2016-12-02T09:03:40.627Z,20
2016-12-02T09:04:21.162Z,20
2016-12-02T09:05:01.704Z,25
2016-12-02T09:05:42.244Z,25
2016-12-02T09:06:22.775Z,25
2016-12-02T09:07:03.309Z,25
2016-12-02T09:07:43.853Z,20
2016-12-02T09:08:24.391Z,20
2016-12-02T09:09:04.933Z,15
2016-12-02T09:09:45.474Z,15
2016-12-02T09:10:26.057Z,10
2016-12-02T09:11:06.594Z,10
2016-12-02T09:11:47.119Z,15
2016-12-02T09:12:27.683Z,15
2016-12-02T09:13:08.221Z,20
2016-12-02T09:13:48.767Z,20
2016-12-02T09:14:29.293Z,20
2016-12-02T09:15:09.831Z,15
2016-12-02T09:15:50.368Z,15
2016-12-02T09:16:30.908Z,15
2016-12-02T09:17:11.449Z,15
2016-12-02T09:17:51.990Z,15
2016-12-02T09:18:32.524Z,15
2016-12-02T09:19:13.068Z,20
2016-12-02T09:19:53.605Z,15
2016-12-02T09:20:34.158Z,15
2016-12-02T09:21:14.695Z,15
2016-12-02T09:21:55.227Z,15
2016-12-02T09:22:35.775Z,15
2016-12-02T09:23:16.307Z,15
2016-12-02T09:23:56.845Z,15
2016-12-02T09:24:37.382Z,15
2016-12-02T09:25:17.929Z,15
2016-12-02T09:25:58.466Z,15
2016-12-02T09:26:39.011Z,15
2016-12-02T09:27:19.544Z,15
2016-12-02T09:29:38.889Z,15
2016-12-02T09:30:19.427Z,15
2016-12-02T09:30:59.958Z,20
2016-12-02T09:31:40.503Z,25
2016-12-02T09:32:21.041Z,25
2016-12-02T09:33:01.582Z,20
2016-12-02T09:33:42.134Z,15
2016-12-02T09:34:22.675Z,20
2016-12-02T09:35:03.204Z,20
2016-12-02T09:35:43.742Z,15
2016-12-02T09:36:24.274Z,20
2016-12-02T09:37:04.821Z,20
2016-12-02T09:37:45.360Z,20
2016-12-02T09:38:25.895Z,20
2016-12-02T09:39:06.452Z,20
2016-12-02T09:39:46.987Z,25
2016-12-02T09:40:27.574Z,25
2016-12-02T09:41:08.113Z,30
2016-12-02T09:41:48.658Z,25
2016-12-02T09:42:29.204Z,25
2016-12-02T09:43:09.741Z,20
2016-12-02T09:43:50.265Z,15
2016-12-02T09:44:30.799Z,15
2016-12-02T09:45:11.368Z,15
2016-12-02T09:45:51.899Z,15
2016-12-02T09:46:32.434Z,20
2016-12-02T09:47:12.969Z,15
2016-12-02T09:47:53.509Z,15
2016-12-02T09:48:34.049Z,15
2016-12-02T09:49:14.584Z,15
2016-12-02T09:49:55.121Z,15
2016-12-02T09:50:35.654Z,15
2016-12-02T09:51:16.188Z,20
2016-12-02T09:51:56.724Z,25
2016-12-02T09:52:37.268Z,25
2016-12-02T09:53:17.781Z,20
2016-12-02T09:53:58.310Z,20
2016-12-02T09:54:38.849Z,20
2016-12-02T09:55:19.390Z,25
2016-12-02T09:55:59.924Z,25
2016-12-02T09:56:40.433Z,25
2016-12-02T09:57:20.963Z,20
2016-12-02T09:58:01.497Z,20
2016-12-02T09:58:42.027Z,20
2016-12-02T09:59:22.560Z,20
2016-12-02T10:00:03.104Z,15
2016-12-02T10:00:43.685Z,15
2016-12-02T10:01:24.212Z,15
2016-12-02T10:02:04.744Z,20
2016-12-02T10:02:45.279Z,25
2016-12-02T10:03:25.828Z,30
2016-12-02T10:04:06.352Z,40
2016-12-02T10:04:46.893Z,45
2016-12-02T10:05:27.423Z,35
2016-12-02T10:06:07.952Z,40
2016-12-02T10:06:48.466Z,35
2016-12-02T10:07:29.010Z,40
2016-12-02T10:08:09.544Z,40
2016-12-02T10:08:50.081Z,30
2016-12-02T10:09:30.626Z,30
2016-12-02T10:10:11.178Z,35
2016-12-02T10:10:51.699Z,35
2016-12-02T10:11:32.235Z,35
2016-12-02T10:12:12.775Z,35
2016-12-02T10:12:53.311Z,30
2016-12-02T10:13:33.857Z,25
2016-12-02T10:14:14.407Z,25
2016-12-02T10:14:54.952Z,25
2016-12-02T10:15:35.490Z,25
2016-12-02T10:16:16.025Z,25
2016-12-02T10:16:56.563Z,25
2016-12-02T10:17:37.099Z,25
2016-12-02T10:18:17.641Z,30
2016-12-02T10:18:58.179Z,30
2016-12-02T10:19:38.722Z,30
2016-12-02T10:20:19.333Z,35
2016-12-02T10:20:59.875Z,25
2016-12-02T10:21:40.406Z,30
2016-12-02T10:22:20.941Z,35
2016-12-02T10:23:01.475Z,30
2016-12-02T10:23:42.003Z,35
2016-12-02T10:24:22.528Z,35
2016-12-02T10:25:03.061Z,30
2016-12-02T10:25:43.652Z,25
2016-12-02T10:26:24.192Z,25
2016-12-02T10:27:04.725Z,35
2016-12-02T10:27:45.249Z,30
2016-12-02T10:28:25.780Z,30
2016-12-02T10:29:06.317Z,30
2016-12-02T10:29:46.857Z,25
2016-12-02T10:30:27.398Z,25
2016-12-02T10:31:07.942Z,25
2016-12-02T10:31:48.471Z,25
2016-12-02T10:32:29.004Z,25
2016-12-02T10:33:09.536Z,20
2016-12-02T10:33:50.074Z,25
2016-12-02T10:34:30.609Z,30
2016-12-02T10:35:11.150Z,25
2016-12-02T10:35:51.689Z,35
2016-12-02T10:36:32.238Z,35
2016-12-02T10:37:12.773Z,35
2016-12-02T10:37:53.307Z,35
2016-12-02T10:38:33.848Z,35
2016-12-02T10:39:14.383Z,35
2016-12-02T10:39:54.928Z,35
2016-12-02T10:40:35.464Z,35
2016-12-02T10:41:16.007Z,45
2016-12-02T10:41:56.545Z,45
2016-12-02T10:42:37.074Z,40
2016-12-02T10:43:17.613Z,45
2016-12-02T10:43:58.142Z,50
2016-12-02T10:44:38.680Z,45
2016-12-02T10:45:19.220Z,35
2016-12-02T10:45:59.760Z,40
2016-12-02T10:46:40.280Z,30
2016-12-02T10:47:20.815Z,30
2016-12-02T10:48:01.356Z,30
2016-12-02T10:48:41.895Z,35